Town Center, New Jersey
Current Conditions -  °F | °C
As of 6:53 PM on Friday 31 Oct 2014 (Local Time) from KCDW Reporting Station
Overcast Overcast  
Wind Chill: 51°   Ceiling: 7000
Heat Index: 51°   Visibility: 10mi
Dew Point: 36°   Wind: 5mph
Humidity: 56%   Direction: 60°ENE
Pressure: 29.91"   Gusts: NA
Location:  40.7895°N, 74.2629°W
Report Text: KCDW 312253Z AUTO 06004KT 10SM OVC070 11/02 A2991 RMK AO2 SLP134 T01060022 TSNO
Loading
Personal Weather Stations






























Interactive Weather Map
Tropical Storm Tracking
New forecast layout! Learn more

10-Day Weather Forecast

Advertisements
Track Severe Weather on mobile